Stations météo

réclame
Mon MeteoGroup
Nikkaluokta, Suède (2036): Température de l'air & dewpoint: 16.08.2019 02:00:00 - 22.08.2019 02:00:00 (CEST)Nikkaluokta, Suède (2036): Vitesse du vent & gusts: 16.08.2019 02:00:00 - 22.08.2019 02:00:00 (CEST)Nikkaluokta, Suède (2036): Direction du vent: 16.08.2019 02:00:00 - 22.08.2019 02:00:00 (CEST)Nikkaluokta, Suède (2036): reduced air pressure: 16.08.2019 02:00:00 - 22.08.2019 02:00:00 (CEST)Nikkaluokta, Suède (2036): Quantités de précipitations: 16.08.2019 02:00:00 - 22.08.2019 02:00:00 (CEST)
Date & Time tt [°C] td [°C] ff [km/h] ff [knt] fx [km/h] fx [knt] dd ppp [hPa] rr [mm]
22.08.2019 02:00:00 4,9 4,1 4 2 10 6 WSW 1016,1 0,0
22.08.2019 01:00:00 6,0 5,3 4 2 9 5 W 1015,4 0,0
22.08.2019 00:00:00 6,9 5,4 4 2 22 12 SW 1014,9 0,0
21.08.2019 23:00:00 8,9 5,8 8 4 17 9 WNW 1014,2 0,0
21.08.2019 22:00:00 10,7 5,5 10 6 29 16 W 1013,7 0,0
21.08.2019 21:00:00 11,4 4,8 21 11 35 19 W 1013,0 0,0
21.08.2019 20:00:00 11,2 5,7 10 5 29 16 W 1013,2 0,0
21.08.2019 19:00:00 13,2 5,1 18 10 32 18 W 1012,1 0,0
21.08.2019 18:00:00 15,1 5,6 15 8 29 16 W 1011,5 0,0
21.08.2019 17:00:00 15,9 6,3 14 8 32 17 WSW 1011,1 0,0
21.08.2019 16:00:00 15,9 4,6 11 6 22 12 W 1010,7 0,0
21.08.2019 15:00:00 17,2 4,8 16 9 26 14 W 1010,3 0,0
21.08.2019 14:00:00 17,0 5,0 13 7 24 13 W 1010,3 0,0
21.08.2019 13:00:00 16,3 4,7 12 7 26 14 SW 1010,2 0,0
21.08.2019 12:00:00 15,6 5,5 10 5 26 14 WSW 1010,1 0,0
21.08.2019 11:00:00 15,8 5,4 4 2 9 5 SSW 1010,0 0,0
21.08.2019 10:00:00 13,5 7,7 4 2 - - ENE 1010,6 0,0
21.08.2019 09:00:00 12,1 8,4 3 2 9 5 SE 1010,9 0,0
21.08.2019 08:00:00 10,1 8,5 5 3 8 5 E 1011,2 0,0
21.08.2019 07:00:00 9,0 8,1 4 2 14 8 SW 1011,0 0,0
21.08.2019 06:00:00 7,2 6,9 6 4 9 5 NW 1011,4 0,0
21.08.2019 05:00:00 6,8 6,4 4 2 8 4 WNW 1011,4 0,0
21.08.2019 04:00:00 7,4 7,0 4 2 10 6 WNW 1011,3 0,0
21.08.2019 03:00:00 7,0 6,4 7 4 11 6 W 1011,4 0,0
21.08.2019 02:00:00 8,1 7,5 8 5 14 8 NW 1011,0 0,0
21.08.2019 01:00:00 7,3 6,7 4 2 7 4 SW 1010,9 0,0
21.08.2019 00:00:00 7,7 6,5 3 2 10 6 W 1010,5 0,0
20.08.2019 23:00:00 8,2 6,8 8 4 11 6 WSW 1010,4 0,0
20.08.2019 22:00:00 8,9 6,7 6 4 10 5 WSW 1010,0 0,0
20.08.2019 21:00:00 10,8 6,7 6 3 16 8 W 1009,3 0,0
20.08.2019 20:00:00 11,7 7,4 4 2 26 14 WNW 1008,4 0,0
20.08.2019 19:00:00 13,4 6,5 18 10 29 16 W 1007,5 0,0
20.08.2019 18:00:00 16,5 6,0 8 5 17 9 WNW 1006,2 0,0
20.08.2019 17:00:00 16,6 6,4 11 6 27 14 NNW 1005,6 0,0
20.08.2019 16:00:00 17,1 5,7 13 7 23 12 W 1005,2 0,0
20.08.2019 15:00:00 17,2 5,5 7 4 19 10 WNW 1004,8 0,0
20.08.2019 14:00:00 17,6 7,1 5 3 15 8 WNW 1004,3 0,0
20.08.2019 13:00:00 15,9 8,9 6 3 14 7 NW 1004,0 0,0
20.08.2019 12:00:00 14,6 8,5 10 6 26 14 W 1004,0 0,0
20.08.2019 11:00:00 15,2 8,9 15 8 26 14 W 1003,3 0,0
20.08.2019 10:00:00 14,1 9,5 3 2 5 3 E 1003,1 -
20.08.2019 09:00:00 11,7 9,6 3 1 11 6 NNW 1003,2 0,0
20.08.2019 08:00:00 9,8 9,3 2 1 6 3 E 1003,1 0,0
20.08.2019 07:00:00 7,9 7,8 4 2 7 4 WSW 1003,2 0,0
20.08.2019 06:00:00 6,6 6,5 4 2 8 5 NNW 1002,8 0,0
20.08.2019 05:00:00 5,2 4,9 2 1 6 4 WNW 1002,5 0,0
20.08.2019 04:00:00 6,9 6,6 4 2 13 7 ENE 1001,7 -
20.08.2019 03:00:00 5,0 4,7 3 2 10 5 S 1001,4 0,0
20.08.2019 02:00:00 6,1 5,7 4 2 9 5 NW 1000,4 0,0
20.08.2019 01:00:00 7,6 6,9 8 4 11 6 WSW 999,6 0,0
20.08.2019 00:00:00 9,9 8,8 7 4 15 8 WSW 998,6 0,0
19.08.2019 23:00:00 11,1 10,0 6 4 19 10 W 997,8 0,0
19.08.2019 22:00:00 10,3 10,0 4 2 9 5 S 997,0 0,0
19.08.2019 21:00:00 10,8 10,3 3 2 7 4 WNW 996,1 -
19.08.2019 20:00:00 11,2 10,7 6 3 11 6 WNW 995,4 -
19.08.2019 19:00:00 11,7 11,2 4 2 19 10 S 994,9 -
19.08.2019 18:00:00 11,7 11,4 11 6 22 12 ENE 994,8 -
19.08.2019 17:00:00 11,9 11,6 16 9 26 14 ENE 994,9 -
19.08.2019 16:00:00 11,9 11,4 19 11 29 16 ENE 995,2 -
19.08.2019 15:00:00 12,4 12,1 12 6 26 14 E 995,7 -
19.08.2019 14:00:00 12,0 11,5 19 11 30 16 ENE 996,1 -
19.08.2019 13:00:00 12,0 11,5 16 9 27 15 E 996,6 -
19.08.2019 12:00:00 12,0 11,5 17 9 25 14 E 997,0 -
19.08.2019 11:00:00 11,1 10,8 4 2 16 9 SSE 997,9 -
19.08.2019 10:00:00 11,8 11,3 4 2 9 5 E 998,6 -
19.08.2019 09:00:00 12,0 11,5 6 3 21 11 E 999,3 -
19.08.2019 08:00:00 11,8 11,5 14 7 22 12 ENE 1000,4 -
19.08.2019 07:00:00 11,6 11,3 4 2 11 6 ENE 1001,3 -
19.08.2019 06:00:00 10,9 10,6 5 3 8 5 WSW 1001,9 0,0
19.08.2019 05:00:00 10,7 10,2 4 2 9 5 SSE 1002,4 -
19.08.2019 04:00:00 10,3 9,7 5 3 7 4 E 1003,1 0,0
19.08.2019 03:00:00 10,3 9,4 6 3 13 7 SE 1003,4 0,0
19.08.2019 02:00:00 10,3 9,4 7 4 16 9 SE 1003,6 0,0
19.08.2019 01:00:00 11,3 9,4 9 5 22 12 E 1003,5 0,0
19.08.2019 00:00:00 11,3 9,9 9 5 21 12 E 1003,4 0,0
18.08.2019 23:00:00 11,4 9,8 8 4 24 13 ESE 1003,1 0,0
18.08.2019 22:00:00 11,5 10,4 5 3 26 14 N 1002,8 -
18.08.2019 21:00:00 13,3 10,5 9 5 24 13 SE 1002,2 -
18.08.2019 20:00:00 13,9 11,8 13 7 27 15 ESE 1002,0 0,0
18.08.2019 19:00:00 14,0 12,2 4 2 26 14 ESE 1002,2 -
18.08.2019 18:00:00 15,7 11,3 10 5 30 16 SE 1001,7 0,0
18.08.2019 17:00:00 16,3 11,0 11 6 35 19 SE 1001,6 0,0
18.08.2019 16:00:00 16,8 11,1 13 7 37 20 S 1001,7 0,0
18.08.2019 15:00:00 16,8 11,5 10 5 37 20 S 1001,5 0,0
18.08.2019 14:00:00 15,1 11,7 18 10 41 22 SE 1001,7 0,0
18.08.2019 13:00:00 14,6 11,0 14 7 39 21 S 1002,1 0,0
18.08.2019 12:00:00 14,2 11,0 8 5 44 24 SSE 1001,9 0,0
18.08.2019 11:00:00 14,1 10,5 10 5 35 19 SSE 1001,6 0,0
18.08.2019 10:00:00 13,9 10,5 12 6 37 20 S 1001,5 0,0
18.08.2019 09:00:00 13,7 9,9 10 6 35 19 NNW 1001,3 0,0
18.08.2019 08:00:00 12,9 9,5 11 6 39 21 S 1001,2 0,0
18.08.2019 07:00:00 12,3 9,7 16 9 35 19 S 1001,1 0,0
18.08.2019 06:00:00 12,6 9,2 17 9 42 23 S 1000,8 0,0
18.08.2019 05:00:00 12,8 9,1 19 10 35 19 S 1001,0 0,0
18.08.2019 04:00:00 13,5 9,2 15 8 35 19 S 1000,9 0,0
18.08.2019 03:00:00 13,6 9,6 10 6 26 14 S 1001,3 0,0
18.08.2019 02:00:00 13,8 10,2 11 6 34 18 S 1001,2 0,0
18.08.2019 01:00:00 14,0 10,4 13 7 42 23 S 1001,1 0,0
18.08.2019 00:00:00 14,5 10,9 12 6 42 23 S 1000,7 0,0
17.08.2019 23:00:00 14,4 11,4 19 11 45 24 SSE 1000,8 0,0
17.08.2019 22:00:00 14,3 11,8 19 10 37 20 SE 1001,3 -
17.08.2019 21:00:00 14,2 11,9 16 9 38 20 SSE 1001,7 -
17.08.2019 20:00:00 13,4 12,1 13 7 26 14 ESE 1002,7 -
17.08.2019 19:00:00 14,0 11,5 13 7 26 14 E 1002,9 0,0
17.08.2019 18:00:00 14,5 11,3 7 4 22 12 SE 1003,1 0,0
17.08.2019 17:00:00 13,6 11,1 10 5 24 13 SE 1003,7 0,0
17.08.2019 16:00:00 14,1 10,5 11 6 26 14 SE 1003,8 0,0
17.08.2019 15:00:00 15,3 9,2 11 6 28 15 S 1003,8 0,0
17.08.2019 14:00:00 15,4 8,6 10 6 24 13 SSW 1004,0 0,0
17.08.2019 13:00:00 16,2 8,9 9 5 23 12 S 1004,1 0,0
17.08.2019 12:00:00 14,3 9,1 5 3 21 11 SSW 1004,8 0,0
17.08.2019 11:00:00 13,6 8,4 12 6 16 9 E 1005,0 0,0
17.08.2019 10:00:00 13,1 7,1 5 3 19 10 E 1005,2 0,0
17.08.2019 09:00:00 12,1 7,6 8 5 19 11 E 1005,6 0,0
17.08.2019 08:00:00 10,2 7,1 5 3 12 7 ESE 1006,3 0,0
17.08.2019 07:00:00 7,9 7,5 4 2 9 5 E 1006,7 0,0
17.08.2019 06:00:00 4,1 3,8 2 1 9 5 NE 1007,3 0,0
17.08.2019 05:00:00 2,7 2,1 4 2 6 3 S 1007,6 0,0
17.08.2019 04:00:00 4,7 3,4 6 3 16 8 WSW 1007,0 0,0
17.08.2019 03:00:00 7,2 5,2 13 7 17 9 WSW 1006,2 0,0
17.08.2019 02:00:00 6,8 5,4 9 5 15 8 WSW 1005,8 0,0
17.08.2019 01:00:00 7,7 6,3 6 3 16 9 WSW 1005,4 0,0
17.08.2019 00:00:00 10,3 8,6 11 6 19 10 SW 1004,5 -
16.08.2019 23:00:00 11,8 7,9 7 4 21 12 SW 1003,9 0,0
16.08.2019 22:00:00 12,3 7,2 11 6 21 11 SE 1003,7 0,0
16.08.2019 21:00:00 12,6 7,7 15 8 40 22 SSW 1003,6 0,0
16.08.2019 20:00:00 14,0 5,9 11 6 23 13 SSW 1003,4 0,0
16.08.2019 19:00:00 14,1 5,7 8 4 29 16 S 1003,6 0,0
16.08.2019 18:00:00 15,0 4,4 16 9 29 16 S 1003,6 0,0
16.08.2019 17:00:00 16,6 4,3 16 9 30 16 SSW 1003,4 0,0
16.08.2019 16:00:00 16,6 5,2 17 9 33 18 SSW 1003,7 0,0
16.08.2019 15:00:00 16,3 7,2 16 8 36 19 S 1004,1 0,0
16.08.2019 14:00:00 16,1 8,8 17 9 30 16 S 1004,5 0,0
16.08.2019 13:00:00 14,2 9,4 5 3 14 7 S 1005,0 0,0
16.08.2019 12:00:00 13,0 9,6 5 3 13 7 E 1005,5 0,0
16.08.2019 11:00:00 12,7 9,2 4 2 16 9 S 1005,7 0,0
16.08.2019 10:00:00 12,5 9,5 10 6 19 10 E 1005,8 0,0
16.08.2019 09:00:00 12,1 9,1 9 5 18 10 E 1006,1 0,0
16.08.2019 08:00:00 11,5 9,6 7 4 14 8 E 1006,6 0,0
16.08.2019 07:00:00 10,6 9,0 6 3 13 7 E 1006,8 0,0
16.08.2019 06:00:00 9,7 9,2 5 3 7 4 SE 1006,8 0,0
16.08.2019 05:00:00 8,5 7,9 4 2 12 7 SSW 1007,2 0,0
16.08.2019 04:00:00 9,0 8,5 5 3 9 5 SE 1007,0 0,0
16.08.2019 03:00:00 9,1 8,5 4 2 8 4 SE 1006,9 0,0
16.08.2019 02:00:00 9,6 9,0 3 2 6 3 SE 1006,7 0,0

tt = Température de l'air
td = dewpoint
ff = Vitesse du vent
fx = gusts
dd = Direction du vent
ppp = reduced air pressure
rr = Quantités de précipitations

stations d'obs. à proximité